Weather at Brookside Farm Private Airstrip

Public forecast

Using degrees Celsius for public forecast. Weather courtesy of forecast.io.

Closest aviation weather report (METAR) to Brookside Farm Private Airstrip

Report is more than 2 hours old.

Closest report is St. Athan Airport, 14.0 nm (26.0 km) NNE. Retrieved 2021/09/27 15:50 UTC (6 hours ago):

EGSY 271550Z 25013G28KT 220V280 6000 +SHRA FEW030CB BKN040 14/08 Q1013

Closest aviation forecast (TAF) to Brookside Farm Private Airstrip

Closest forecast is Cardiff International Airport, 14.8 nm (27.5 km) NNE. Retrieved 2021/09/27 18:00 UTC (3 hours ago):

TAF EGFF 271654Z 2718/2818 26014KT 9999 SCT030 BECMG 2718/2720 20012KT TEMPO 2718/2720 26017G27KT 7000 SHRA PROB30 TEMPO 2718/2719 4000 +SHRA PROB30 TEMPO 2720/2806 7000 SHRA TEMPO 2806/2812 6000 SHRA BECMG 2809/2812 19015G25KT PROB40 TEMPO 2811/2818 20022G35KT 3000 +SHRA BKN009 BECMG 2815/2818 25015KT